Time;durP1;ratioP1;P1;durP2;ratioP2;P2;SDS_P1;SDS_P2;PMS_P1;PMS_P2;Temp;Humidity;BMP_temperature;BMP_pressure;BME280_temperature;BME280_humidity;BME280_pressure;Samples;Min_cycle;Max_cycle;Signal;HPM_P1;HPM_P2
2022/09/15 00:01:52;;;;;;;11.17;2.83;;;17.60;99.90;;;18.45;100.00;97067.56;4975542;28;20962;-87
2022/09/15 00:04:22;;;;;;;3.53;2.47;;;17.60;99.90;;;18.46;100.00;97074.44;4973631;28;20535;-87
2022/09/15 00:06:51;;;;;;;3.10;2.53;;;17.70;99.90;;;18.45;100.00;97073.66;4973013;28;20446;-87
2022/09/15 00:09:20;;;;;;;8.97;2.50;;;17.70;99.90;;;18.45;100.00;97072.84;4971148;28;20445;-88
2022/09/15 00:11:49;;;;;;;7.50;2.60;;;17.60;99.90;;;18.44;100.00;97077.34;4977279;28;20532;-86
2022/09/15 00:14:20;;;;;;;3.10;2.40;;;17.60;99.90;;;18.45;100.00;97072.84;4977558;28;20444;-87
2022/09/15 00:16:50;;;;;;;3.43;2.43;;;17.60;99.90;;;18.45;100.00;97067.56;4970430;28;20512;-87
2022/09/15 00:19:19;;;;;;;3.73;2.90;;;17.60;99.90;;;18.45;100.00;97065.72;4970566;28;20460;-87
2022/09/15 00:21:48;;;;;;;3.77;2.70;;;17.60;99.90;;;18.45;100.00;97064.91;4967383;28;20455;-88
2022/09/15 00:24:16;;;;;;;5.97;2.87;;;17.60;99.90;;;18.45;100.00;97071.00;4967653;28;20533;-87
2022/09/15 00:26:45;;;;;;;5.47;2.70;;;17.60;99.90;;;18.47;100.00;97063.59;4970784;28;20478;-88
2022/09/15 00:29:14;;;;;;;3.17;2.53;;;17.60;99.90;;;18.48;100.00;97067.03;4963002;28;20516;-87
2022/09/15 00:31:42;;;;;;;2.77;2.50;;;17.60;99.90;;;18.48;100.00;97067.84;4963971;28;20614;-87
2022/09/15 00:34:14;;;;;;;6.90;2.40;;;17.70;99.90;;;18.48;100.00;97061.75;4964546;28;20559;-87
2022/09/15 00:36:44;;;;;;;4.30;2.10;;;17.60;99.90;;;18.48;100.00;97062.53;4964289;28;20846;-87
2022/09/15 00:39:13;;;;;;;10.13;3.37;;;17.60;99.90;;;18.49;100.00;97064.13;4962939;28;20489;-87
2022/09/15 00:41:43;;;;;;;3.37;2.57;;;17.60;99.90;;;18.50;100.00;97062.28;4966421;28;20536;-87
2022/09/15 00:44:50;;;;;;;4.00;2.50;;;17.60;99.90;;;18.51;100.00;97069.19;4964024;28;20448;-88
2022/09/15 00:47:22;;;;;;;8.93;2.27;;;17.60;99.90;;;18.49;100.00;97065.97;4965639;28;20495;-88
2022/09/15 00:50:00;;;;;;;4.80;2.80;;;17.60;99.90;;;18.45;100.00;97068.34;4965641;28;20463;-87
2022/09/15 00:52:38;;;;;;;4.70;2.40;;;17.70;99.90;;;18.48;100.00;97067.03;4967836;28;21026;-87
2022/09/15 00:55:11;;;;;;;2.90;2.50;;;17.70;99.90;;;18.47;100.00;97066.22;4963574;28;20548;-88
2022/09/15 00:57:47;;;;;;;3.63;2.43;;;17.60;99.90;;;18.49;100.00;97072.06;4964433;28;20503;-87
2022/09/15 01:00:21;;;;;;;10.43;3.70;;;17.70;99.90;;;18.47;100.00;97066.22;4966315;28;20952;-88
2022/09/15 01:02:52;;;;;;;9.00;2.70;;;17.60;99.90;;;18.48;100.00;97073.13;4965687;28;20469;-87
2022/09/15 01:05:41;;;;;;;11.30;2.83;;;17.60;99.90;;;18.48;100.00;97072.31;4967394;28;20471;-88
2022/09/15 01:08:17;;;;;;;3.10;2.40;;;17.70;99.90;;;18.48;100.00;97073.13;4966373;28;20461;-87
2022/09/15 01:10:46;;;;;;;3.33;2.60;;;17.70;99.90;;;18.49;100.00;97071.28;4959348;28;20493;-88
2022/09/15 01:13:17;;;;;;;9.73;3.13;;;17.70;99.90;;;18.50;100.00;97072.88;4964092;28;20476;-87
2022/09/15 01:16:01;;;;;;;5.60;3.20;;;17.70;99.90;;;18.50;100.00;97072.88;4960269;28;20499;-88
2022/09/15 01:18:48;;;;;;;3.50;3.20;;;17.70;99.90;;;18.50;100.00;97071.03;4966164;28;20854;-87
2022/09/15 01:21:36;;;;;;;3.93;3.17;;;17.70;99.90;;;18.50;100.00;97075.53;4965924;28;20504;-87
2022/09/15 01:24:44;;;;;;;8.47;2.80;;;17.70;99.90;;;18.50;100.00;97075.53;4965040;28;20464;-87
2022/09/15 01:28:01;;;;;;;5.10;2.63;;;17.60;99.90;;;18.51;100.00;97071.84;4965070;28;20489;-87
2022/09/15 01:30:37;;;;;;;5.00;3.13;;;17.70;99.90;;;18.51;100.00;97074.47;4947836;28;20519;-88
2022/09/15 01:33:29;;;;;;;6.33;2.93;;;17.70;99.90;;;18.51;100.00;97077.94;4967037;28;20967;-88
2022/09/15 01:36:11;;;;;;;4.60;2.97;;;17.60;99.90;;;18.51;100.00;97071.84;4968755;28;20465;-87
2022/09/15 01:39:00;;;;;;;3.73;2.30;;;17.70;99.90;;;18.50;100.00;97076.31;4963670;28;20505;-88
2022/09/15 01:41:36;;;;;;;12.10;2.90;;;17.70;99.90;;;18.52;100.00;97078.72;4971169;28;20539;-88
2022/09/15 01:44:12;;;;;;;6.90;3.30;;;17.70;99.90;;;18.50;100.00;97076.31;4967266;28;20469;-87
2022/09/15 01:46:47;;;;;;;3.90;2.83;;;17.70;99.90;;;18.49;100.00;97069.44;4969829;28;20455;-88
2022/09/15 01:49:23;;;;;;;14.83;3.10;;;17.70;99.90;;;18.52;100.00;97068.13;4970002;28;20491;-88
2022/09/15 01:51:54;;;;;;;7.40;2.93;;;17.70;99.90;;;18.51;100.00;97067.34;4968276;28;20636;-88
2022/09/15 01:54:31;;;;;;;6.00;3.27;;;17.70;99.90;;;18.52;100.00;97070.78;4969769;28;20460;-88
2022/09/15 01:57:01;;;;;;;6.63;2.30;;;17.70;99.90;;;18.52;100.00;97068.94;4972016;28;20558;-88
2022/09/15 01:59:30;;;;;;;4.23;2.70;;;17.70;99.90;;;18.52;100.00;97076.09;4969153;28;20438;-88
2022/09/15 02:02:08;;;;;;;6.33;2.83;;;17.70;99.90;;;18.52;100.00;97074.22;4969763;28;20526;-88
2022/09/15 02:04:45;;;;;;;2.73;2.30;;;17.70;99.90;;;18.51;100.00;97077.13;4969258;28;20943;-87
2022/09/15 02:07:25;;;;;;;6.03;2.87;;;17.70;99.90;;;18.52;100.00;97068.94;4970189;28;20842;-89
2022/09/15 02:10:03;;;;;;;6.70;2.87;;;17.70;99.90;;;18.54;100.00;97073.94;4969673;28;20913;-88
2022/09/15 02:12:40;;;;;;;6.63;2.27;;;17.70;99.90;;;18.53;100.00;97070.50;4969233;28;20500;-88
2022/09/15 02:15:14;;;;;;;3.70;2.83;;;17.70;99.90;;;18.52;100.00;97070.78;4969196;28;20468;-88
2022/09/15 02:17:52;;;;;;;3.23;2.93;;;17.80;99.90;;;18.53;100.00;97065.22;4973572;28;21042;-88
2022/09/15 02:20:32;;;;;;;4.43;2.67;;;17.70;99.90;;;18.54;100.00;97064.16;4970033;28;20472;-89
2022/09/15 02:23:07;;;;;;;6.03;2.73;;;17.70;99.90;;;18.55;100.00;97072.91;4972356;28;20485;-88
2022/09/15 02:25:44;;;;;;;4.83;2.50;;;17.70;99.90;;;18.54;100.00;97068.66;4968459;28;20899;-89
2022/09/15 02:28:17;;;;;;;7.67;2.07;;;17.70;99.90;;;18.53;100.00;97067.84;4972220;28;20495;-88
2022/09/15 02:30:48;;;;;;;4.93;2.40;;;17.70;99.90;;;18.55;100.00;97067.59;4969985;28;20622;-87
2022/09/15 02:33:23;;;;;;;7.70;3.23;;;17.70;99.90;;;18.54;100.00;97072.09;4969340;28;20492;-88
2022/09/15 02:35:52;;;;;;;5.00;2.97;;;17.70;99.90;;;18.54;100.00;97077.41;4967216;28;20474;-88
2022/09/15 02:38:22;;;;;;;4.27;2.67;;;17.80;99.90;;;18.53;100.00;97075.03;4967909;28;20476;-88
2022/09/15 02:40:51;;;;;;;7.80;2.70;;;17.90;99.90;;;18.53;100.00;97081.09;4967866;28;20505;-87
2022/09/15 02:43:22;;;;;;;1.30;1.20;;;17.90;99.90;;;18.43;100.00;97091.63;4967099;28;20512;-89
2022/09/15 02:45:51;;;;;;;2.50;1.13;;;17.70;99.90;;;18.39;100.00;97080.00;4968652;28;20461;-88
2022/09/15 02:48:24;;;;;;;1.30;1.00;;;17.70;99.90;;;18.37;100.00;97092.69;4965289;28;20478;-88
2022/09/15 02:50:52;;;;;;;1.00;0.90;;;17.70;99.90;;;18.31;100.00;97091.06;4968719;28;21018;-87
2022/09/15 02:53:21;;;;;;;2.13;1.00;;;17.60;99.90;;;18.24;100.00;97090.53;4963076;28;20535;-86
2022/09/15 02:55:50;;;;;;;4.57;0.90;;;17.50;99.90;;;18.16;100.00;97069.03;4979541;28;20472;-90
2022/09/15 02:58:19;;;;;;;3.07;0.90;;;17.60;99.90;;;18.14;100.00;97079.91;4982980;28;20469;-90
2022/09/15 03:00:48;;;;;;;1.67;1.03;;;17.60;99.90;;;18.11;100.00;97093.66;4987318;28;20499;-89
2022/09/15 03:03:19;;;;;;;0.90;0.73;;;17.50;99.90;;;18.10;100.00;97092.84;4983621;28;20476;-90
2022/09/15 03:05:50;;;;;;;2.20;0.80;;;17.50;99.90;;;18.07;100.00;97098.66;4987052;28;20495;-89
2022/09/15 03:08:20;;;;;;;0.97;0.80;;;17.50;99.90;;;18.03;100.00;97096.78;4984803;28;20490;-89
2022/09/15 03:10:49;;;;;;;1.40;0.90;;;17.50;99.90;;;17.93;100.00;97096.72;4987486;28;20452;-90
2022/09/15 03:13:18;;;;;;;0.90;0.77;;;17.40;99.90;;;17.86;100.00;97106.75;4987619;28;20532;-90
2022/09/15 03:15:47;;;;;;;2.50;0.90;;;17.30;99.90;;;17.86;100.00;97112.03;4983322;28;20464;-89
2022/09/15 03:18:16;;;;;;;1.83;1.00;;;17.30;99.90;;;17.85;100.00;97119.16;4983836;28;20499;-90
2022/09/15 03:20:45;;;;;;;3.70;0.97;;;17.10;99.90;;;17.88;100.00;97125.78;4984117;28;20527;-89
2022/09/15 03:23:15;;;;;;;8.00;1.30;;;17.20;99.90;;;17.90;100.00;97121.06;4979427;28;20492;-90
2022/09/15 03:25:46;;;;;;;3.73;1.20;;;17.20;99.90;;;17.90;100.00;97131.63;4981856;28;20503;-90
2022/09/15 03:28:15;;;;;;;3.63;1.03;;;17.20;99.90;;;17.85;100.00;97121.81;4990028;28;20469;-89
2022/09/15 03:30:44;;;;;;;7.13;1.20;;;17.20;99.90;;;17.80;100.00;97124.44;4987850;28;20473;-89
2022/09/15 03:33:13;;;;;;;1.30;0.93;;;17.10;99.90;;;17.72;100.00;97126.75;4978744;28;20500;-90
2022/09/15 03:35:41;;;;;;;3.93;1.20;;;17.00;99.90;;;17.74;100.00;97129.94;4988451;28;20473;-90
2022/09/15 03:38:13;;;;;;;2.70;0.97;;;16.90;99.90;;;17.70;100.00;97145.50;4985286;28;20472;-90
2022/09/15 03:40:55;;;;;;;2.10;1.30;;;16.90;99.90;;;17.69;100.00;97148.44;4974437;28;20458;-89
2022/09/15 03:43:24;;;;;;;2.70;1.40;;;16.90;99.90;;;17.57;100.00;97140.66;4990024;28;20487;-90
2022/09/15 03:45:53;;;;;;;4.80;2.20;;;16.70;99.90;;;17.47;100.00;97146.66;4986445;28;20456;-90
2022/09/15 03:48:23;;;;;;;3.80;2.70;;;16.70;99.90;;;17.40;100.00;97151.34;4983190;28;20971;-89
2022/09/15 03:50:52;;;;;;;5.50;3.80;;;16.60;99.90;;;17.15;100.00;97135.28;4984905;28;20732;-89
2022/09/15 03:53:21;;;;;;;8.30;4.33;;;16.50;99.90;;;17.09;100.00;97133.63;4987824;28;20516;-89
2022/09/15 03:55:52;;;;;;;8.70;5.10;;;16.50;99.90;;;16.95;100.00;97141.16;4981633;28;20437;-89
2022/09/15 03:58:21;;;;;;;15.63;5.00;;;16.30;99.90;;;16.89;100.00;97139.53;4982157;28;20468;-89
2022/09/15 04:00:49;;;;;;;9.50;5.40;;;16.30;99.90;;;16.84;100.00;97138.66;4983894;28;20472;-89
2022/09/15 04:03:19;;;;;;;10.10;4.40;;;16.30;99.90;;;16.82;100.00;97140.78;4979099;28;20971;-90
2022/09/15 04:05:48;;;;;;;6.97;5.07;;;16.20;99.90;;;16.74;100.00;97143.84;4995930;28;20559;-89
2022/09/15 04:08:17;;;;;;;9.13;4.67;;;16.20;99.90;;;16.72;100.00;97162.59;4984620;28;20455;-90
2022/09/15 04:10:47;;;;;;;12.77;5.57;;;16.30;99.90;;;16.62;100.00;97153.75;4990308;28;20487;-90
2022/09/15 04:13:17;;;;;;;11.10;6.57;;;16.20;99.90;;;16.57;100.00;97173.78;4982478;28;20519;-89
2022/09/15 04:15:47;;;;;;;10.27;6.10;;;16.20;99.90;;;16.41;100.00;97176.44;4986407;28;20468;-89
2022/09/15 04:18:16;;;;;;;13.33;6.97;;;16.00;99.90;;;16.37;100.00;97173.50;4981417;28;21168;-89
2022/09/15 04:20:45;;;;;;;13.30;6.73;;;15.90;99.90;;;16.32;100.00;97173.44;4981677;28;20465;-89
2022/09/15 04:23:14;;;;;;;10.10;6.00;;;15.90;99.90;;;16.33;100.00;97179.50;4983312;28;20511;-90
2022/09/15 04:25:43;;;;;;;16.13;6.93;;;15.80;99.90;;;16.29;100.00;97181.84;4975460;28;20991;-90
2022/09/15 04:28:12;;;;;;;15.33;7.07;;;15.80;99.90;;;16.23;100.00;97172.25;4976523;28;20483;-88
2022/09/15 04:30:42;;;;;;;11.80;7.07;;;15.70;99.90;;;16.25;100.00;97180.72;4981112;28;20468;-89
2022/09/15 04:33:10;;;;;;;18.80;7.47;;;15.70;99.90;;;16.26;100.00;97176.25;4981158;28;20517;-90
2022/09/15 04:35:39;;;;;;;18.73;7.37;;;15.60;99.90;;;16.24;100.00;97184.44;4985681;28;20442;-90
2022/09/15 04:38:09;;;;;;;20.47;7.10;;;15.60;99.90;;;16.21;100.00;97176.19;4981814;28;20795;-91
2022/09/15 04:40:38;;;;;;;13.60;7.10;;;15.60;99.90;;;16.23;100.00;97185.47;4986508;28;20444;-90
2022/09/15 04:43:07;;;;;;;15.33;7.10;;;15.60;99.90;;;16.18;100.00;97192.50;4983360;28;20452;-90
2022/09/15 04:45:37;;;;;;;12.73;7.60;;;15.50;99.90;;;16.14;100.00;97194.03;4977703;28;20800;-90
2022/09/15 04:48:08;;;;;;;12.40;7.83;;;15.60;99.90;;;16.16;100.00;97192.75;4982998;28;20487;-90
2022/09/15 04:50:39;;;;;;;29.73;9.47;;;15.50;99.90;;;16.19;100.00;97202.00;4982801;28;20444;-89
2022/09/15 04:53:08;;;;;;;13.33;7.90;;;15.50;99.90;;;16.19;100.00;97192.25;4980364;28;20496;-90
2022/09/15 04:55:37;;;;;;;17.60;7.87;;;15.50;99.90;;;16.21;100.00;97195.44;4981819;28;20468;-88
2022/09/15 04:58:07;;;;;;;19.40;8.30;;;15.50;99.90;;;16.23;100.00;97205.75;4982413;28;20465;-90
2022/09/15 05:00:42;;;;;;;14.73;8.83;;;15.50;99.90;;;16.23;100.00;97203.13;4980856;28;20462;-90
2022/09/15 05:03:14;;;;;;;19.67;8.90;;;15.40;99.90;;;16.19;100.00;97202.00;4983329;28;20471;-89
2022/09/15 05:05:43;;;;;;;16.10;7.93;;;15.50;99.90;;;16.19;100.00;97209.91;4987154;28;20477;-89
2022/09/15 05:08:12;;;;;;;16.40;9.07;;;15.50;99.90;;;16.20;100.00;97206.25;4984653;28;20468;-90
2022/09/15 05:10:40;;;;;;;17.80;9.03;;;15.50;99.90;;;16.17;100.00;97210.19;4987861;28;20469;-89
2022/09/15 05:13:09;;;;;;;17.63;9.80;;;15.50;99.90;;;16.16;100.00;97213.84;4979036;28;20512;-90
2022/09/15 05:15:39;;;;;;;23.53;9.97;;;15.50;99.90;;;16.11;100.00;97213.75;4984128;28;20569;-90
2022/09/15 05:18:08;;;;;;;18.07;10.63;;;15.50;99.90;;;16.14;100.00;97215.91;4985364;28;20472;-90
2022/09/15 05:20:39;;;;;;;14.43;10.03;;;15.40;99.90;;;16.15;100.00;97222.78;4981518;28;20504;-90
2022/09/15 05:23:09;;;;;;;22.00;12.00;;;15.40;99.90;;;16.13;100.00;97224.09;4982268;28;20466;-90
2022/09/15 05:25:38;;;;;;;28.07;11.90;;;15.40;99.90;;;16.11;100.00;97219.03;4983074;28;20488;-90
2022/09/15 05:28:09;;;;;;;23.43;11.37;;;15.50;99.90;;;16.09;100.00;97219.31;4976592;28;20519;-90
2022/09/15 05:30:40;;;;;;;23.30;10.93;;;15.40;99.90;;;16.10;100.00;97220.09;4984042;28;20472;-89
2022/09/15 05:33:11;;;;;;;20.93;12.70;;;15.40;99.90;;;16.08;100.00;97228.25;4980871;28;20477;-89
2022/09/15 05:35:51;;;;;;;33.83;13.30;;;15.40;99.90;;;16.09;100.00;97224.56;4986191;28;20919;-90
2022/09/15 05:38:19;;;;;;;29.33;12.70;;;15.30;99.90;;;16.08;100.00;97227.44;4979950;28;20543;-90
2022/09/15 05:40:49;;;;;;;34.03;13.50;;;15.40;99.90;;;16.08;100.00;97228.25;4980538;28;20541;-90
2022/09/15 05:43:19;;;;;;;18.77;11.40;;;15.30;99.90;;;16.09;100.00;97235.13;4982215;28;20464;-90
2022/09/15 05:45:56;;;;;;;24.17;12.27;;;15.40;99.90;;;16.10;100.00;97231.44;4980976;28;20472;-89
2022/09/15 05:48:25;;;;;;;25.53;12.57;;;15.40;99.90;;;16.07;100.00;97225.84;4979360;28;20490;-90
2022/09/15 05:50:57;;;;;;;24.77;12.80;;;15.40;99.90;;;16.08;100.00;97230.88;4980270;28;20469;-90
2022/09/15 05:53:27;;;;;;;27.13;10.83;;;15.40;99.90;;;16.06;100.00;97234.81;4978029;28;20472;-90
2022/09/15 05:55:57;;;;;;;18.10;10.70;;;15.40;99.90;;;16.07;100.00;97236.38;4975104;28;20493;-89
2022/09/15 05:58:26;;;;;;;18.67;11.50;;;15.40;99.90;;;16.05;100.00;97235.84;4971454;28;20477;-89
2022/09/15 06:00:56;;;;;;;25.33;11.23;;;15.40;99.90;;;16.07;100.00;97236.38;4975975;28;20481;-89
2022/09/15 06:03:25;;;;;;;17.63;10.97;;;15.30;99.90;;;16.09;100.00;97239.59;4975375;28;20469;-84
2022/09/15 06:06:05;;;;;;;28.10;16.80;;;15.30;99.90;;;16.05;100.00;97244.56;4974181;28;21054;-90
2022/09/15 06:08:36;;;;;;;25.23;11.87;;;15.40;99.90;;;16.04;100.00;97242.94;4985178;28;21030;-89
2022/09/15 06:11:09;;;;;;;17.40;10.20;;;15.40;99.90;;;16.05;100.00;97241.91;4986783;28;20445;-89
2022/09/15 06:13:38;;;;;;;26.43;10.40;;;15.40;99.90;;;16.00;100.00;97241.06;4991058;28;20528;-88
2022/09/15 06:16:11;;;;;;;24.27;9.67;;;15.30;99.90;;;15.99;100.00;97234.19;4991379;28;20436;-90
2022/09/15 06:18:40;;;;;;;17.23;9.30;;;15.30;99.90;;;15.98;100.00;97237.84;4994656;28;20482;-90
2022/09/15 06:21:14;;;;;;;18.70;9.53;;;15.30;99.90;;;15.98;100.00;97238.66;4979001;28;20472;-90
2022/09/15 06:23:45;;;;;;;14.13;9.30;;;15.30;99.90;;;16.00;100.00;97241.84;4983908;28;20453;-90
2022/09/15 06:26:19;;;;;;;21.13;10.87;;;15.30;99.90;;;15.99;100.00;97244.72;4983553;28;20480;-90
2022/09/15 06:28:51;;;;;;;16.37;8.43;;;15.30;99.90;;;15.99;100.00;97245.53;4966191;28;20503;-90
2022/09/15 06:31:21;;;;;;;16.33;8.37;;;15.30;99.90;;;16.03;100.00;97251.13;4982545;28;20519;-89
2022/09/15 06:33:52;;;;;;;19.40;9.80;;;15.30;99.90;;;16.01;100.00;97247.91;4979139;28;20519;-89
2022/09/15 06:36:26;;;;;;;13.80;8.37;;;15.40;99.90;;;16.05;100.00;97254.31;4977185;28;20476;-88
2022/09/15 06:38:55;;;;;;;11.60;7.30;;;15.40;99.90;;;16.02;100.00;97255.59;4977996;28;20465;-88
2022/09/15 06:41:24;;;;;;;13.77;7.50;;;15.40;99.90;;;16.06;100.00;97261.19;4978888;28;20456;-89
2022/09/15 06:43:54;;;;;;;18.77;7.63;;;15.40;99.90;;;16.03;100.00;97257.19;4982981;28;20488;-89
2022/09/15 06:46:27;;;;;;;15.83;7.50;;;15.40;99.90;;;16.07;100.00;97258.28;4977112;28;20461;-89
2022/09/15 06:48:56;;;;;;;15.70;8.20;;;15.40;99.90;;;16.11;100.00;97263.88;4982826;28;20488;-90
2022/09/15 06:51:30;;;;;;;14.90;7.60;;;15.40;99.90;;;16.12;100.00;97257.56;4984158;28;20503;-89
2022/09/15 06:53:59;;;;;;;10.73;7.37;;;15.50;99.90;;;16.17;100.00;97273.50;4984601;28;20620;-89
2022/09/15 06:56:28;;;;;;;11.60;7.20;;;15.50;99.90;;;16.20;100.00;97267.72;4972878;28;20461;-87
2022/09/15 06:59:08;;;;;;;21.40;7.50;;;15.50;99.90;;;16.25;100.00;97280.19;4972864;28;20518;-88
2022/09/15 07:01:40;;;;;;;12.17;7.93;;;15.50;99.90;;;16.29;100.00;97282.09;4977550;28;20468;-88
2022/09/15 07:04:09;;;;;;;17.00;6.93;;;15.50;99.90;;;16.31;100.00;97285.31;4973909;28;20469;-88
2022/09/15 07:06:40;;;;;;;12.13;7.67;;;15.60;99.90;;;16.31;100.00;97282.69;4980876;28;20539;-89
2022/09/15 07:09:11;;;;;;;16.80;10.80;;;15.60;99.90;;;16.32;100.00;97286.88;4969947;28;20568;-80
2022/09/15 07:11:41;;;;;;;17.00;8.43;;;15.70;99.90;;;16.39;100.00;97281.44;4976317;28;20469;-90
2022/09/15 07:14:11;;;;;;;13.33;8.73;;;15.70;99.90;;;16.44;100.00;97287.59;4979275;28;20488;-90
2022/09/15 07:16:40;;;;;;;13.90;8.23;;;15.70;99.90;;;16.48;100.00;97290.56;4974713;28;20896;-88
2022/09/15 07:19:14;;;;;;;18.53;8.87;;;15.80;99.90;;;16.51;100.00;97295.34;4984377;28;21014;-88
2022/09/15 07:21:45;;;;;;;15.93;8.50;;;15.70;99.90;;;16.48;100.00;97301.91;4977930;28;20457;-87
2022/09/15 07:24:14;;;;;;;16.10;8.23;;;15.80;99.90;;;16.49;100.00;97306.13;4980305;28;20479;-89
2022/09/15 07:26:43;;;;;;;14.73;8.20;;;15.90;99.90;;;16.55;100.00;97307.84;4977954;28;20464;-88
2022/09/15 07:29:12;;;;;;;20.70;8.80;;;15.80;99.90;;;16.60;100.00;97302.63;4983948;28;20477;-91
2022/09/15 07:31:41;;;;;;;15.00;8.17;;;15.90;99.90;;;16.62;100.00;97306.88;4979652;28;20449;-90
2022/09/15 07:34:10;;;;;;;48.00;26.37;;;16.00;99.90;;;16.63;100.00;97316.38;4976441;28;20499;-90
2022/09/15 07:36:38;;;;;;;17.03;7.40;;;16.00;99.90;;;16.62;100.00;97309.53;4988949;28;20456;-89
2022/09/15 07:39:08;;;;;;;14.10;6.83;;;16.00;99.90;;;16.65;100.00;97311.66;4975695;28;20539;-90
2022/09/15 07:41:38;;;;;;;9.30;5.53;;;16.00;99.90;;;16.61;100.00;97311.34;4980565;28;20441;-90
2022/09/15 07:44:10;;;;;;;6.63;5.07;;;16.00;99.90;;;16.63;100.00;97313.75;4983821;28;20950;-90
2022/09/15 07:46:39;;;;;;;6.37;4.83;;;16.10;99.90;;;16.66;100.00;97311.41;4969088;28;21042;-90
2022/09/15 07:49:12;;;;;;;14.07;6.77;;;16.00;99.90;;;16.64;100.00;97316.16;4984974;28;20459;-90
2022/09/15 07:51:42;;;;;;;13.73;5.40;;;16.10;99.90;;;16.63;100.00;97308.47;4988692;28;20440;-90
2022/09/15 07:54:14;;;;;;;11.13;5.47;;;16.10;99.90;;;16.59;100.00;97311.59;4981053;28;20492;-90
2022/09/15 07:56:48;;;;;;;6.37;4.27;;;16.10;99.90;;;16.62;100.00;97306.88;4981970;28;20475;-90
2022/09/15 07:59:17;;;;;;;6.23;4.53;;;16.10;99.90;;;16.63;100.00;97309.25;4976080;28;20449;-91
2022/09/15 08:01:46;;;;;;;9.97;5.70;;;16.10;99.90;;;16.61;100.00;97314.00;4974447;28;21007;-90
2022/09/15 08:04:15;;;;;;;9.03;5.40;;;16.10;99.90;;;16.53;100.00;97315.19;4981589;28;20445;-90
2022/09/15 08:06:44;;;;;;;7.77;4.63;;;16.00;99.90;;;16.47;100.00;97323.25;4976084;28;20480;-90
2022/09/15 08:09:16;;;;;;;8.20;5.07;;;16.00;99.90;;;16.46;100.00;97319.81;4979365;28;20456;-90
2022/09/15 08:11:46;;;;;;;9.57;6.30;;;16.00;99.90;;;16.45;100.00;97328.78;4979229;28;20492;-88
2022/09/15 08:14:14;;;;;;;6.90;4.57;;;16.00;99.90;;;16.42;100.00;97323.97;4988702;28;20460;-89
2022/09/15 08:16:44;;;;;;;6.43;4.50;;;15.80;99.90;;;16.43;100.00;97330.88;4985707;28;20465;-89
2022/09/15 08:19:14;;;;;;;11.37;5.50;;;15.80;99.90;;;16.40;100.00;97323.44;4981421;28;20477;-90
2022/09/15 08:21:43;;;;;;;13.73;5.43;;;15.80;99.90;;;16.39;100.00;97335.03;4980482;28;20500;-90
2022/09/15 08:24:11;;;;;;;13.77;6.17;;;15.80;99.90;;;16.36;100.00;97340.78;4982526;28;20461;-89
2022/09/15 08:26:51;;;;;;;11.30;7.00;;;15.70;99.90;;;16.37;100.00;97347.66;4976422;28;20476;-90
2022/09/15 08:29:21;;;;;;;15.80;7.30;;;15.70;99.90;;;16.32;100.00;97342.31;4985973;28;20457;-90
2022/09/15 08:31:52;;;;;;;11.10;6.87;;;15.70;99.90;;;16.25;100.00;97341.66;4928885;28;20448;-90
2022/09/15 08:34:20;;;;;;;13.80;6.20;;;15.70;99.90;;;16.26;100.00;97343.28;4976367;28;20479;-90
2022/09/15 08:36:49;;;;;;;12.27;6.50;;;15.70;99.90;;;16.24;100.00;97344.56;4976250;28;20500;-90
2022/09/15 08:39:18;;;;;;;12.37;6.60;;;15.50;99.90;;;16.29;100.00;97341.97;4979232;28;20564;-89
2022/09/15 08:41:51;;;;;;;8.00;5.87;;;15.60;99.90;;;16.33;100.00;97349.19;4983464;28;20495;-90
2022/09/15 08:44:36;;;;;;;9.20;5.47;;;15.80;99.90;;;16.30;100.00;97347.03;4979134;28;20453;-90
2022/09/15 08:47:12;;;;;;;12.90;5.53;;;15.80;99.90;;;16.35;100.00;97355.00;4995597;28;20483;-89
2022/09/15 08:49:55;;;;;;;9.53;5.20;;;15.80;99.90;;;16.36;100.00;97351.34;4985817;28;20496;-90
2022/09/15 08:52:32;;;;;;;9.30;5.03;;;15.70;99.90;;;16.43;100.00;97351.97;4981774;28;20503;-89
2022/09/15 08:55:12;;;;;;;16.53;5.27;;;15.80;99.90;;;16.47;100.00;97358.38;4989591;28;20522;-89
2022/09/15 08:57:43;;;;;;;28.93;4.53;;;15.90;99.90;;;16.54;100.00;97358.22;4979955;28;21014;-90
2022/09/15 09:00:17;;;;;;;9.93;5.10;;;15.90;99.90;;;16.56;100.00;97362.22;4978901;28;20496;-90
2022/09/15 09:03:33;;;;;;;6.97;4.53;;;15.90;99.90;;;16.55;100.00;97360.66;4977104;28;20489;-88
2022/09/15 09:06:15;;;;;;;5.97;3.87;;;16.00;99.90;;;16.44;100.00;97365.97;4982545;28;20536;-89
2022/09/15 09:09:25;;;;;;;12.97;4.40;;;16.00;99.90;;;16.47;100.00;97354.94;4978256;28;20562;-89
2022/09/15 09:12:17;;;;;;;14.43;4.53;;;16.00;99.90;;;16.52;100.00;97360.31;4973856;28;20631;-89
2022/09/15 09:15:05;;;;;;;7.70;3.90;;;16.00;99.90;;;16.53;100.00;97361.88;4977574;28;20484;-89
2022/09/15 09:18:06;;;;;;;4.30;3.00;;;16.10;99.90;;;16.55;100.00;97358.00;4966726;28;20495;-82
2022/09/15 09:20:49;;;;;;;6.33;3.20;;;16.10;99.90;;;16.62;100.00;97357.03;4973518;28;20513;-89
2022/09/15 09:23:23;;;;;;;4.50;3.37;;;16.10;99.90;;;16.62;100.00;97357.03;4979533;28;20437;-89
2022/09/15 09:25:54;;;;;;;5.50;3.03;;;16.10;99.90;;;16.68;100.00;97374.53;4976166;28;20540;-90
2022/09/15 09:28:40;;;;;;;4.17;2.60;;;16.10;99.90;;;16.72;100.00;97373.03;4980137;28;20444;-90
2022/09/15 09:31:20;;;;;;;5.50;2.47;;;16.10;99.90;;;16.73;100.00;97372.00;4976001;28;20507;-89
2022/09/15 09:33:58;;;;;;;3.90;2.17;;;16.20;99.90;;;16.78;100.00;97375.50;4978616;28;20450;-90
2022/09/15 09:36:28;;;;;;;9.13;2.40;;;16.20;99.90;;;16.85;100.00;97383.25;4981215;28;20492;-90
2022/09/15 09:39:01;;;;;;;6.47;2.63;;;16.30;99.90;;;16.91;100.00;97377.78;4990179;28;20459;-89
2022/09/15 09:41:35;;;;;;;2.67;2.30;;;16.40;99.90;;;17.01;100.00;97385.03;4992623;28;21567;-89
2022/09/15 09:44:10;;;;;;;2.73;2.17;;;16.50;99.90;;;17.07;100.00;97376.16;4992524;28;20448;-89
2022/09/15 09:46:41;;;;;;;4.40;2.50;;;16.50;99.90;;;17.10;100.00;97378.31;4975553;28;20513;-86
2022/09/15 09:49:19;;;;;;;3.57;2.13;;;16.50;99.90;;;17.17;100.00;97383.41;4972449;28;20451;-84
2022/09/15 09:51:54;;;;;;;3.30;2.40;;;16.50;99.90;;;17.23;100.00;97385.06;4966051;28;20824;-84
2022/09/15 09:54:27;;;;;;;3.20;2.60;;;16.70;99.90;;;17.22;100.00;97384.25;4968432;28;20558;-84
2022/09/15 09:57:22;;;;;;;7.10;3.10;;;16.70;99.90;;;17.25;100.00;97381.13;4965862;28;20544;-84
2022/09/15 09:59:52;;;;;;;3.20;2.57;;;16.70;99.90;;;17.26;100.00;97382.72;4962834;28;20979;-83
2022/09/15 10:02:28;;;;;;;4.50;3.10;;;16.70;99.90;;;17.27;100.00;97388.81;4963904;28;20488;-84
2022/09/15 10:05:19;;;;;;;3.30;2.87;;;16.70;99.90;;;17.20;100.00;97386.34;4965486;28;20940;-84
2022/09/15 10:07:48;;;;;;;7.33;3.77;;;16.80;99.90;;;17.18;100.00;97383.16;4962184;28;20468;-84
2022/09/15 10:10:27;;;;;;;4.60;3.60;;;16.70;99.90;;;17.20;100.00;97386.34;4963931;28;20468;-84
2022/09/15 10:12:57;;;;;;;4.90;2.60;;;16.60;99.90;;;17.20;100.00;97393.47;4964223;28;20514;-84
2022/09/15 10:15:30;;;;;;;6.13;3.03;;;16.60;99.90;;;17.25;100.00;97390.91;4962986;28;20458;-84
2022/09/15 10:18:06;;;;;;;5.20;3.20;;;16.60;99.90;;;17.28;100.00;97385.13;4963312;28;21123;-85
2022/09/15 10:20:51;;;;;;;6.73;3.23;;;16.70;99.90;;;17.35;100.00;97391.84;4969663;28;20464;-84
2022/09/15 10:23:28;;;;;;;5.90;2.97;;;16.80;99.90;;;17.45;100.00;97376.09;4975696;28;20447;-80
2022/09/15 10:26:18;;;;;;;8.50;4.30;;;16.80;99.90;;;17.56;100.00;97380.47;4961427;28;20591;-84
2022/09/15 10:29:13;;;;;;;4.60;3.13;;;17.00;99.90;;;17.63;100.00;97376.84;4960541;28;20984;-84
2022/09/15 10:31:44;;;;;;;15.03;3.33;;;17.00;99.90;;;17.74;100.00;97373.25;4962553;28;20553;-85
2022/09/15 10:34:31;;;;;;;5.47;3.00;;;17.20;99.90;;;17.85;100.00;97380.25;4967330;28;20543;-84